createdAt,value
2022-09-11T00:03:42.912Z,27.92
2022-09-11T00:06:27.413Z,27.55
2022-09-11T00:09:01.856Z,27.33
2022-09-11T00:11:36.943Z,28.10
2022-09-11T00:14:06.122Z,29.77
2022-09-11T00:16:36.873Z,28.98
2022-09-11T00:19:17.601Z,28.05
2022-09-11T00:21:46.713Z,28.48
2022-09-11T00:24:13.994Z,29.40
2022-09-11T00:26:42.795Z,30.08
2022-09-11T00:29:12.191Z,31.02
2022-09-11T00:31:41.779Z,29.67
2022-09-11T00:34:09.814Z,29.88
2022-09-11T00:36:41.545Z,30.52
2022-09-11T00:39:11.712Z,29.67
2022-09-11T00:41:45.024Z,28.98
2022-09-11T00:44:25.571Z,30.02
2022-09-11T00:46:56.131Z,30.55
2022-09-11T00:49:42.969Z,29.70
2022-09-11T00:52:18.429Z,29.67
2022-09-11T00:55:01.482Z,30.20
2022-09-11T00:57:33.452Z,28.98
2022-09-11T01:00:05.063Z,28.85
2022-09-11T01:02:36.918Z,27.30
2022-09-11T01:05:06.219Z,29.80
2022-09-11T01:07:37.679Z,28.27
2022-09-11T01:10:07.847Z,29.42
2022-09-11T01:12:50.993Z,28.60
2022-09-11T01:15:55.046Z,27.33
2022-09-11T01:19:14.007Z,27.65
2022-09-11T01:21:41.346Z,27.70
2022-09-11T01:24:45.069Z,26.48
2022-09-11T01:27:32.587Z,24.75
2022-09-11T01:30:23.182Z,23.88
2022-09-11T01:35:44.488Z,20.80
2022-09-11T01:38:26.439Z,23.05
2022-09-11T01:41:14.943Z,23.90
2022-09-11T01:43:57.149Z,23.23
2022-09-11T01:46:45.616Z,24.27
2022-09-11T01:49:34.558Z,25.90
2022-09-11T01:52:10.743Z,28.95
2022-09-11T01:54:51.485Z,32.60
2022-09-11T01:57:45.849Z,32.35
2022-09-11T02:00:15.061Z,37.03
2022-09-11T02:03:11.137Z,50.70
2022-09-11T02:05:53.016Z,64.45
2022-09-11T02:08:34.644Z,53.60
2022-09-11T02:11:09.337Z,54.85
2022-09-11T02:13:45.847Z,55.05
2022-09-11T02:16:38.400Z,56.08
2022-09-11T02:19:09.567Z,52.38
2022-09-11T02:21:42.001Z,43.53
2022-09-11T02:24:11.067Z,30.58
2022-09-11T02:26:45.029Z,24.25
2022-09-11T02:29:15.504Z,21.90
2022-09-11T02:31:43.912Z,21.23
2022-09-11T02:34:15.684Z,20.58
2022-09-11T02:37:06.191Z,19.23
2022-09-11T02:39:59.442Z,19.33
2022-09-11T02:42:36.951Z,17.75
2022-09-11T02:45:54.598Z,17.83
2022-09-11T02:48:53.970Z,16.70
2022-09-11T02:51:29.269Z,15.75
2022-09-11T02:54:25.370Z,18.08
2022-09-11T02:57:22.859Z,20.48
2022-09-11T03:00:03.025Z,19.70
2022-09-11T03:02:39.759Z,19.38
2022-09-11T03:05:09.206Z,18.33
2022-09-11T03:07:36.634Z,19.63
2022-09-11T03:10:04.909Z,18.60
2022-09-11T03:12:34.312Z,19.33
2022-09-11T03:15:03.311Z,22.92
2022-09-11T03:17:31.753Z,26.75
2022-09-11T03:19:59.619Z,25.63
2022-09-11T03:22:27.726Z,27.83
2022-09-11T03:24:55.706Z,30.05
2022-09-11T03:27:25.269Z,32.15
2022-09-11T03:29:54.058Z,30.30
2022-09-11T03:32:23.798Z,29.27
2022-09-11T03:34:51.912Z,30.58
2022-09-11T03:37:21.645Z,31.08
2022-09-11T03:39:49.330Z,29.05
2022-09-11T03:42:18.160Z,28.00
2022-09-11T03:44:50.342Z,28.48
2022-09-11T03:47:17.654Z,26.35
2022-09-11T03:49:45.399Z,28.02
2022-09-11T03:52:12.706Z,26.17
2022-09-11T03:54:41.088Z,28.08
2022-09-11T03:57:12.265Z,27.48
2022-09-11T03:59:40.398Z,27.85
2022-09-11T04:05:32.558Z,25.50
2022-09-11T04:08:06.603Z,24.35
2022-09-11T04:10:38.538Z,25.83
2022-09-11T04:13:08.340Z,25.05
2022-09-11T04:15:38.263Z,27.33
2022-09-11T04:18:12.101Z,27.92
2022-09-11T04:20:41.231Z,25.67
2022-09-11T04:23:09.307Z,25.58
2022-09-11T04:25:37.113Z,26.00
2022-09-11T04:28:07.723Z,26.13
2022-09-11T04:30:40.196Z,26.13
2022-09-11T04:33:10.055Z,26.23
2022-09-11T04:35:41.555Z,29.23
2022-09-11T04:38:08.965Z,28.40
2022-09-11T04:40:38.539Z,28.83
2022-09-11T04:43:07.013Z,28.08
2022-09-11T04:45:35.561Z,28.08
2022-09-11T04:48:08.651Z,28.02
2022-09-11T04:50:36.424Z,29.80
2022-09-11T04:53:19.810Z,29.95
2022-09-11T04:55:51.242Z,32.67
2022-09-11T04:58:19.105Z,37.58
2022-09-11T05:00:48.420Z,34.10
2022-09-11T05:03:15.963Z,34.28
2022-09-11T05:05:43.999Z,32.97
2022-09-11T05:08:11.986Z,33.95
2022-09-11T05:10:39.881Z,34.15
2022-09-11T05:13:07.805Z,31.77
2022-09-11T05:15:35.395Z,35.58
2022-09-11T05:18:04.558Z,33.60
2022-09-11T05:20:35.721Z,35.65
2022-09-11T05:23:06.184Z,37.17
2022-09-11T05:25:34.011Z,35.45
2022-09-11T05:28:06.520Z,33.83
2022-09-11T05:30:34.257Z,33.10
2022-09-11T05:33:05.093Z,33.42
2022-09-11T05:35:34.072Z,34.03
2022-09-11T05:38:03.481Z,34.42
2022-09-11T05:40:31.559Z,33.53
2022-09-11T05:43:15.401Z,34.58
2022-09-11T05:45:46.164Z,34.65
2022-09-11T05:48:16.868Z,35.63
2022-09-11T05:50:56.257Z,34.57
2022-09-11T05:53:32.680Z,32.85
2022-09-11T05:56:16.178Z,34.42
2022-09-11T05:58:49.607Z,34.13
2022-09-11T06:01:22.885Z,33.13
2022-09-11T06:04:12.766Z,34.58
2022-09-11T06:06:48.847Z,33.28
2022-09-11T06:09:17.968Z,32.92
2022-09-11T06:11:46.429Z,35.70
2022-09-11T06:14:14.204Z,34.08
2022-09-11T06:16:44.178Z,33.13
2022-09-11T06:19:15.483Z,31.35
2022-09-11T06:21:49.285Z,35.00
2022-09-11T06:24:33.081Z,33.38
2022-09-11T06:27:01.712Z,35.08
2022-09-11T06:29:32.819Z,31.85
2022-09-11T06:32:04.577Z,32.10
2022-09-11T06:34:35.903Z,33.50
2022-09-11T06:37:08.922Z,33.20
2022-09-11T06:39:36.480Z,33.63
2022-09-11T06:42:04.057Z,31.75
2022-09-11T06:44:36.930Z,34.25
2022-09-11T06:47:07.026Z,33.15
2022-09-11T06:49:36.622Z,31.77
2022-09-11T06:52:37.429Z,31.85
2022-09-11T06:55:40.828Z,30.10
2022-09-11T06:58:16.005Z,29.05
2022-09-11T07:00:43.915Z,32.77
2022-09-11T07:03:12.701Z,30.98
2022-09-11T07:05:48.525Z,30.33
2022-09-11T07:08:16.253Z,30.90
2022-09-11T07:10:46.421Z,30.50
2022-09-11T07:13:13.983Z,30.35
2022-09-11T07:15:43.090Z,30.33
2022-09-11T07:18:11.618Z,30.38
2022-09-11T07:20:40.511Z,30.55
2022-09-11T07:23:13.675Z,29.67
2022-09-11T07:25:41.498Z,28.00
2022-09-11T07:28:12.480Z,29.38
2022-09-11T07:30:43.831Z,30.63
2022-09-11T07:33:11.635Z,28.95
2022-09-11T07:35:39.221Z,28.98
2022-09-11T07:38:07.040Z,28.33
2022-09-11T07:40:38.124Z,28.67
2022-09-11T07:43:06.402Z,29.08
2022-09-11T07:45:34.368Z,27.42
2022-09-11T07:48:07.005Z,28.13
2022-09-11T07:50:36.486Z,27.63
2022-09-11T07:53:06.297Z,28.40
2022-09-11T07:55:35.163Z,29.63
2022-09-11T07:58:03.642Z,30.63
2022-09-11T08:00:37.258Z,29.75
2022-09-11T08:06:21.880Z,29.80
2022-09-11T08:08:58.881Z,32.20
2022-09-11T08:11:27.679Z,29.85
2022-09-11T08:13:56.149Z,32.15
2022-09-11T08:16:28.116Z,32.20
2022-09-11T08:19:08.128Z,33.03
2022-09-11T08:21:36.398Z,33.70
2022-09-11T08:24:05.532Z,34.15
2022-09-11T08:26:37.018Z,33.70
2022-09-11T08:29:05.730Z,33.03
2022-09-11T08:31:38.240Z,31.33
2022-09-11T08:34:10.823Z,31.60
2022-09-11T08:36:39.596Z,30.88
2022-09-11T08:39:09.878Z,31.88
2022-09-11T08:42:05.947Z,31.80
2022-09-11T08:44:55.648Z,33.25
2022-09-11T08:47:37.836Z,32.83
2022-09-11T08:50:16.134Z,30.75
2022-09-11T08:52:46.453Z,34.60
2022-09-11T08:55:24.364Z,34.97
2022-09-11T08:58:10.235Z,33.42
2022-09-11T09:00:44.673Z,36.30
2022-09-11T09:03:50.251Z,35.90
2022-09-11T09:06:44.996Z,36.40
2022-09-11T09:09:36.816Z,34.75
2022-09-11T09:12:28.245Z,36.53
2022-09-11T09:17:33.177Z,36.92
2022-09-11T09:20:17.161Z,37.15
2022-09-11T09:22:52.077Z,36.15
2022-09-11T09:25:26.796Z,35.55
2022-09-11T09:28:03.877Z,37.38
2022-09-11T09:30:44.188Z,34.80
2022-09-11T09:33:23.032Z,34.63
2022-09-11T09:35:51.566Z,35.53
2022-09-11T09:38:29.709Z,34.97
2022-09-11T09:41:10.914Z,36.90
2022-09-11T09:44:09.037Z,33.83
2022-09-11T09:46:43.993Z,32.15
2022-09-11T09:49:39.308Z,33.45
2022-09-11T09:52:31.312Z,31.92
2022-09-11T09:55:05.977Z,32.78
2022-09-11T09:57:39.916Z,31.05
2022-09-11T10:00:10.521Z,29.00
2022-09-11T10:02:57.603Z,25.73
2022-09-11T10:05:41.904Z,22.73
2022-09-11T10:08:34.307Z,23.45
2022-09-11T10:11:09.395Z,21.42
2022-09-11T10:13:43.928Z,20.52
2022-09-11T10:16:28.357Z,21.95
2022-09-11T10:18:57.631Z,23.27
2022-09-11T10:21:38.745Z,19.42
2022-09-11T10:24:18.985Z,15.70
2022-09-11T10:26:56.725Z,11.10
2022-09-11T10:29:36.414Z,13.57
2022-09-11T10:32:18.105Z,15.65
2022-09-11T10:34:51.381Z,18.60
2022-09-11T10:37:39.259Z,18.02
2022-09-11T10:40:23.436Z,16.73
2022-09-11T10:42:54.447Z,17.52
2022-09-11T10:45:24.037Z,12.90
2022-09-11T10:47:51.506Z,14.18
2022-09-11T10:50:26.984Z,16.75
2022-09-11T10:53:15.756Z,15.38
2022-09-11T10:55:59.004Z,16.10
2022-09-11T10:58:39.058Z,15.73
2022-09-11T11:01:07.470Z,14.43
2022-09-11T11:03:36.774Z,13.95
2022-09-11T11:06:54.130Z,13.75
2022-09-11T11:09:44.628Z,15.45
2022-09-11T11:12:33.991Z,14.25
2022-09-11T11:15:30.290Z,13.93
2022-09-11T11:18:14.245Z,12.45
2022-09-11T11:20:57.221Z,11.52
2022-09-11T11:23:39.338Z,11.93
2022-09-11T11:26:15.001Z,10.25
2022-09-11T11:29:05.425Z,10.52
2022-09-11T11:34:49.910Z,8.05
2022-09-11T11:37:28.538Z,8.38
2022-09-11T11:40:05.162Z,5.53
2022-09-11T11:42:53.970Z,5.53
2022-09-11T11:45:28.017Z,4.90
2022-09-11T11:47:56.783Z,3.30
2022-09-11T11:50:44.030Z,2.80
2022-09-11T11:53:29.295Z,3.22
2022-09-11T11:56:18.241Z,2.55
2022-09-11T11:59:11.526Z,2.35
2022-09-11T12:02:04.888Z,4.43
2022-09-11T12:04:56.365Z,8.60
2022-09-11T12:10:36.625Z,6.57
2022-09-11T12:13:07.837Z,7.45
2022-09-11T12:15:57.524Z,6.97
2022-09-11T12:18:27.126Z,6.17
2022-09-11T12:21:23.949Z,3.78
2022-09-11T12:23:58.313Z,7.13
2022-09-11T12:26:27.158Z,7.05
2022-09-11T12:29:44.098Z,6.75
2022-09-11T12:32:53.692Z,5.80
2022-09-11T12:35:50.456Z,4.85
2022-09-11T12:38:41.298Z,7.13
2022-09-11T12:41:31.264Z,6.90
2022-09-11T12:43:58.778Z,7.38
2022-09-11T12:46:29.696Z,5.90
2022-09-11T12:49:23.426Z,6.72
2022-09-11T12:51:56.750Z,6.90
2022-09-11T12:54:34.417Z,7.88
2022-09-11T12:57:07.873Z,6.47
2022-09-11T12:59:50.174Z,7.35
2022-09-11T13:02:57.427Z,6.07
2022-09-11T13:05:43.056Z,6.55
2022-09-11T13:08:24.222Z,6.97
2022-09-11T13:10:52.141Z,5.80
2022-09-11T13:13:38.070Z,6.10
2022-09-11T13:19:19.603Z,6.57
2022-09-11T13:21:50.029Z,5.00
2022-09-11T13:24:31.609Z,6.55
2022-09-11T13:27:03.466Z,5.43
2022-09-11T13:29:36.845Z,6.57
2022-09-11T13:32:11.810Z,6.85
2022-09-11T13:34:43.525Z,4.97
2022-09-11T13:37:16.600Z,5.57
2022-09-11T13:39:49.986Z,5.20
2022-09-11T13:42:23.571Z,4.72
2022-09-11T13:44:53.388Z,4.88
2022-09-11T13:47:23.472Z,4.57
2022-09-11T13:52:23.380Z,4.55
2022-09-11T13:54:53.488Z,4.82
2022-09-11T13:57:36.676Z,6.47
2022-09-11T14:00:04.529Z,6.90
2022-09-11T14:02:41.283Z,4.45
2022-09-11T14:05:15.985Z,4.70
2022-09-11T14:10:44.784Z,3.90
2022-09-11T14:13:33.271Z,6.05
2022-09-11T14:16:16.610Z,5.60
2022-09-11T14:18:49.566Z,4.45
2022-09-11T14:21:26.525Z,4.65
2022-09-11T14:23:58.539Z,5.00
2022-09-11T14:26:47.622Z,4.50
2022-09-11T14:29:36.519Z,4.70
2022-09-11T14:32:40.383Z,5.40
2022-09-11T14:35:12.184Z,5.57
2022-09-11T14:37:51.894Z,6.38
2022-09-11T14:40:20.341Z,6.25
2022-09-11T14:42:48.617Z,5.88
2022-09-11T14:45:26.218Z,5.72
2022-09-11T14:47:53.775Z,5.53
2022-09-11T14:50:22.135Z,4.65
2022-09-11T14:52:50.147Z,5.40
2022-09-11T14:55:19.614Z,4.65
2022-09-11T14:57:48.111Z,5.00
2022-09-11T15:00:18.222Z,6.30
2022-09-11T15:02:47.760Z,7.40
2022-09-11T15:05:25.454Z,7.53
2022-09-11T15:07:57.034Z,6.63
2022-09-11T15:10:26.381Z,5.82
2022-09-11T15:12:55.704Z,5.90
2022-09-11T15:15:23.561Z,5.03
2022-09-11T15:17:50.861Z,5.25
2022-09-11T15:20:24.571Z,5.18
2022-09-11T15:22:52.782Z,4.90
2022-09-11T15:25:24.407Z,8.90
2022-09-11T15:27:53.316Z,6.90
2022-09-11T15:30:21.877Z,6.00
2022-09-11T15:32:49.410Z,7.05
2022-09-11T15:35:20.739Z,5.57
2022-09-11T15:37:49.298Z,6.32
2022-09-11T15:40:17.844Z,7.47
2022-09-11T15:45:19.568Z,21.52
2022-09-11T15:47:47.997Z,7.18
2022-09-11T15:50:20.103Z,11.68
2022-09-11T15:52:48.676Z,7.03
2022-09-11T15:55:15.899Z,6.00
2022-09-11T15:57:43.354Z,6.45
2022-09-11T16:00:11.412Z,4.93
2022-09-11T16:02:43.711Z,5.50
2022-09-11T16:05:11.601Z,5.68
2022-09-11T16:07:39.860Z,6.20
2022-09-11T16:10:08.612Z,5.47
2022-09-11T16:12:36.673Z,6.00
2022-09-11T16:15:05.288Z,5.72
2022-09-11T16:17:33.906Z,6.65
2022-09-11T16:20:02.947Z,6.40
2022-09-11T16:22:33.162Z,7.25
2022-09-11T16:25:01.576Z,6.50
2022-09-11T16:27:29.724Z,5.72
2022-09-11T16:32:46.448Z,6.65
2022-09-11T16:35:14.527Z,7.80
2022-09-11T16:37:42.033Z,6.63
2022-09-11T16:40:11.532Z,6.65
2022-09-11T16:42:39.509Z,6.80
2022-09-11T16:45:07.368Z,7.90
2022-09-11T16:47:37.303Z,8.00
2022-09-11T16:50:07.290Z,7.20
2022-09-11T16:52:39.581Z,6.95
2022-09-11T16:55:09.811Z,7.03
2022-09-11T16:57:39.035Z,6.65
2022-09-11T17:00:09.359Z,6.50
2022-09-11T17:05:10.013Z,6.07
2022-09-11T17:07:37.774Z,6.88
2022-09-11T17:10:05.662Z,6.85
2022-09-11T17:12:33.598Z,7.90
2022-09-11T17:15:01.730Z,7.18
2022-09-11T17:17:29.281Z,6.78
2022-09-11T17:20:10.175Z,5.95
2022-09-11T17:22:38.168Z,6.60
2022-09-11T17:25:07.940Z,6.45
2022-09-11T17:30:08.918Z,6.40
2022-09-11T17:32:37.673Z,5.97
2022-09-11T17:35:08.068Z,6.82
2022-09-11T17:40:05.895Z,5.78
2022-09-11T17:42:34.725Z,5.65
2022-09-11T17:45:04.584Z,7.18
2022-09-11T17:47:33.868Z,7.30
2022-09-11T17:50:04.756Z,6.95
2022-09-11T17:52:37.305Z,6.65
2022-09-11T17:55:05.923Z,7.60
2022-09-11T17:57:38.810Z,7.88
2022-09-11T18:00:07.340Z,7.97
2022-09-11T18:02:42.673Z,8.18
2022-09-11T18:05:10.162Z,8.70
2022-09-11T18:07:37.755Z,8.68
2022-09-11T18:10:06.431Z,8.68
2022-09-11T18:12:35.575Z,7.72
2022-09-11T18:15:06.671Z,8.73
2022-09-11T18:17:34.793Z,9.27
2022-09-11T18:20:09.191Z,8.63
2022-09-11T18:22:39.915Z,9.15
2022-09-11T18:25:09.686Z,9.82
2022-09-11T18:27:39.946Z,9.88
2022-09-11T18:30:09.774Z,9.23
2022-09-11T18:32:39.910Z,9.27
2022-09-11T18:35:08.192Z,8.95
2022-09-11T18:37:35.842Z,9.30
2022-09-11T18:40:05.284Z,11.02
2022-09-11T18:42:36.601Z,10.93
2022-09-11T18:45:05.774Z,10.68
2022-09-11T18:47:33.300Z,9.50
2022-09-11T18:50:02.703Z,10.90
2022-09-11T18:52:33.127Z,10.02
2022-09-11T18:55:05.453Z,10.10
2022-09-11T18:57:40.770Z,10.38
2022-09-11T19:00:14.614Z,10.02
2022-09-11T19:02:42.065Z,9.50
2022-09-11T19:05:09.631Z,9.20
2022-09-11T19:07:36.827Z,10.90
2022-09-11T19:10:04.812Z,10.73
2022-09-11T19:12:34.527Z,10.00
2022-09-11T19:15:05.682Z,9.80
2022-09-11T19:17:34.128Z,9.85
2022-09-11T19:20:04.231Z,10.00
2022-09-11T19:22:35.415Z,10.07
2022-09-11T19:25:03.491Z,9.95
2022-09-11T19:27:32.684Z,10.55
2022-09-11T19:30:01.903Z,11.32
2022-09-11T19:32:29.270Z,10.93
2022-09-11T19:35:00.196Z,10.05
2022-09-11T19:37:28.785Z,9.93
2022-09-11T19:40:00.302Z,10.90
2022-09-11T19:42:29.619Z,10.68
2022-09-11T19:44:57.885Z,11.00
2022-09-11T19:47:25.708Z,11.95
2022-09-11T19:49:54.622Z,12.68
2022-09-11T19:52:22.847Z,12.35
2022-09-11T19:54:52.295Z,12.45
2022-09-11T19:57:22.020Z,11.63
2022-09-11T19:59:50.677Z,10.13
2022-09-11T20:02:25.332Z,10.70
2022-09-11T20:04:53.242Z,9.90
2022-09-11T20:07:21.267Z,10.82
2022-09-11T20:10:49.117Z,9.90
2022-09-11T20:13:17.361Z,9.60
2022-09-11T20:15:45.683Z,10.52
2022-09-11T20:18:15.452Z,18.45
2022-09-11T20:20:45.493Z,18.27
2022-09-11T20:23:13.143Z,12.52
2022-09-11T20:25:40.645Z,11.60
2022-09-11T20:28:10.628Z,10.77
2022-09-11T20:30:38.368Z,10.10
2022-09-11T20:33:06.243Z,9.95
2022-09-11T20:35:34.945Z,9.85
2022-09-11T20:38:03.966Z,10.35
2022-09-11T20:40:32.791Z,9.95
2022-09-11T20:43:01.115Z,10.25
2022-09-11T20:45:28.970Z,9.25
2022-09-11T20:47:56.459Z,8.85
2022-09-11T20:50:24.198Z,8.80
2022-09-11T20:52:53.571Z,8.82
2022-09-11T20:55:21.033Z,9.80
2022-09-11T20:57:48.886Z,9.73
2022-09-11T21:00:19.826Z,9.77
2022-09-11T21:02:47.819Z,9.88
2022-09-11T21:05:16.227Z,9.38
2022-09-11T21:07:44.047Z,8.50
2022-09-11T21:10:12.177Z,8.65
2022-09-11T21:12:41.033Z,8.20
2022-09-11T21:15:10.204Z,7.68
2022-09-11T21:17:37.949Z,7.13
2022-09-11T21:20:06.022Z,7.07
2022-09-11T21:22:33.703Z,7.25
2022-09-11T21:25:03.151Z,7.30
2022-09-11T21:27:32.494Z,7.20
2022-09-11T21:30:03.798Z,7.78
2022-09-11T21:32:32.662Z,7.43
2022-09-11T21:34:59.928Z,8.30
2022-09-11T21:37:31.651Z,7.38
2022-09-11T21:39:58.946Z,7.65
2022-09-11T21:42:26.220Z,8.20
2022-09-11T21:44:58.515Z,7.55
2022-09-11T21:47:26.238Z,7.55
2022-09-11T21:49:53.490Z,7.43
2022-09-11T21:52:20.750Z,7.40
2022-09-11T21:54:51.537Z,7.53
2022-09-11T21:57:19.942Z,7.50
2022-09-11T21:59:48.483Z,7.30
2022-09-11T22:02:18.336Z,7.63
2022-09-11T22:04:45.597Z,8.10
2022-09-11T22:07:13.067Z,8.18
2022-09-11T22:09:41.009Z,8.02
2022-09-11T22:12:10.696Z,7.72
2022-09-11T22:14:37.882Z,7.32
2022-09-11T22:17:05.892Z,7.25
2022-09-11T22:19:33.251Z,7.65
2022-09-11T22:22:01.736Z,7.30
2022-09-11T22:24:32.132Z,8.20
2022-09-11T22:26:59.765Z,8.18
2022-09-11T22:29:28.220Z,7.80
2022-09-11T22:31:55.892Z,7.65
2022-09-11T22:34:23.867Z,8.23
2022-09-11T22:36:52.111Z,8.10
2022-09-11T22:39:19.578Z,8.45
2022-09-11T22:41:48.014Z,8.50
2022-09-11T22:44:15.352Z,8.48
2022-09-11T22:46:48.735Z,8.15
2022-09-11T22:49:18.465Z,8.32
2022-09-11T22:51:46.141Z,8.27
2022-09-11T22:54:14.424Z,8.90
2022-09-11T22:56:41.759Z,6.80
2022-09-11T22:59:09.363Z,6.43
2022-09-11T23:01:37.562Z,7.53
2022-09-11T23:04:05.378Z,7.65
2022-09-11T23:06:53.201Z,6.97
2022-09-11T23:09:22.736Z,8.20
2022-09-11T23:11:51.795Z,8.20
2022-09-11T23:14:20.077Z,8.98
2022-09-11T23:16:47.826Z,9.10
2022-09-11T23:19:15.832Z,8.32
2022-09-11T23:21:43.086Z,8.88
2022-09-11T23:24:14.635Z,8.68
2022-09-11T23:26:43.712Z,9.52
2022-09-11T23:29:12.053Z,8.23
2022-09-11T23:31:39.793Z,8.52
2022-09-11T23:34:08.910Z,9.80
2022-09-11T23:36:37.600Z,10.10
2022-09-11T23:39:05.588Z,9.07
2022-09-11T23:41:34.489Z,6.53
2022-09-11T23:44:03.750Z,6.15
2022-09-11T23:46:33.302Z,6.00
2022-09-11T23:49:05.105Z,7.88
2022-09-11T23:51:33.477Z,8.15
2022-09-11T23:54:03.153Z,7.95
2022-09-11T23:56:31.474Z,8.45
2022-09-11T23:58:59.560Z,8.63
